createdAt,value
2022-07-30T00:00:51.804Z,20.20
2022-07-30T00:03:18.997Z,20.20
2022-07-30T00:05:46.250Z,20.20
2022-07-30T00:08:13.821Z,20.30
2022-07-30T00:10:41.334Z,20.30
2022-07-30T00:13:08.759Z,20.30
2022-07-30T00:15:41.459Z,20.40
2022-07-30T00:18:08.629Z,20.30
2022-07-30T00:20:35.778Z,20.30
2022-07-30T00:23:06.134Z,20.40
2022-07-30T00:25:33.928Z,20.40
2022-07-30T00:28:01.164Z,20.40
2022-07-30T00:30:28.511Z,20.40
2022-07-30T00:32:55.892Z,20.40
2022-07-30T00:35:23.105Z,20.40
2022-07-30T00:37:50.261Z,20.40
2022-07-30T00:40:17.597Z,20.40
2022-07-30T00:42:47.542Z,20.40
2022-07-30T00:45:17.270Z,20.40
2022-07-30T00:47:44.675Z,20.30
2022-07-30T00:50:14.123Z,20.40
2022-07-30T00:52:42.801Z,20.40
2022-07-30T00:55:14.427Z,20.30
2022-07-30T00:57:42.710Z,20.30
2022-07-30T01:00:14.779Z,20.30
2022-07-30T01:02:41.957Z,20.30
2022-07-30T01:05:10.161Z,20.40
2022-07-30T01:07:37.631Z,20.30
2022-07-30T01:10:07.581Z,20.30
2022-07-30T01:12:35.097Z,20.30
2022-07-30T01:15:05.716Z,20.40
2022-07-30T01:17:34.104Z,20.30
2022-07-30T01:20:12.102Z,20.30
2022-07-30T01:23:07.228Z,20.30
2022-07-30T01:25:56.431Z,20.40
2022-07-30T01:28:33.588Z,20.40
2022-07-30T01:31:02.260Z,20.40
2022-07-30T01:33:31.173Z,20.40
2022-07-30T01:35:59.961Z,20.40
2022-07-30T01:38:31.187Z,20.40
2022-07-30T01:41:03.865Z,20.40
2022-07-30T01:43:33.056Z,20.40
2022-07-30T01:46:01.851Z,20.40
2022-07-30T01:48:31.788Z,20.40
2022-07-30T01:51:05.288Z,20.40
2022-07-30T01:53:36.865Z,20.40
2022-07-30T01:56:05.305Z,20.40
2022-07-30T01:58:40.174Z,20.40
2022-07-30T02:01:07.637Z,20.40
2022-07-30T02:03:35.476Z,20.40
2022-07-30T02:06:13.653Z,20.40
2022-07-30T02:08:53.343Z,20.40
2022-07-30T02:11:39.195Z,20.40
2022-07-30T02:14:17.555Z,20.40
2022-07-30T02:16:50.241Z,20.40
2022-07-30T02:19:20.065Z,20.40
2022-07-30T02:21:56.616Z,20.40
2022-07-30T02:24:29.522Z,20.30
2022-07-30T02:27:08.662Z,20.40
2022-07-30T02:29:38.465Z,20.30
2022-07-30T02:32:10.987Z,20.30
2022-07-30T02:34:41.571Z,20.30
2022-07-30T02:37:12.483Z,20.30
2022-07-30T02:39:41.731Z,20.20
2022-07-30T02:42:10.706Z,20.20
2022-07-30T02:44:42.468Z,20.20
2022-07-30T02:47:11.395Z,20.20
2022-07-30T02:49:42.030Z,20.20
2022-07-30T02:52:13.595Z,20.20
2022-07-30T02:54:43.212Z,20.20
2022-07-30T02:57:11.597Z,20.20
2022-07-30T02:59:42.206Z,20.10
2022-07-30T03:02:11.917Z,20.10
2022-07-30T03:04:42.936Z,20.10
2022-07-30T03:07:12.057Z,20.00
2022-07-30T03:09:51.071Z,20.00
2022-07-30T03:12:21.689Z,20.00
2022-07-30T03:14:49.243Z,20.00
2022-07-30T03:17:17.947Z,20.00
2022-07-30T03:19:48.025Z,20.00
2022-07-30T03:22:17.612Z,20.00
2022-07-30T03:24:46.878Z,20.00
2022-07-30T03:27:16.316Z,19.90
2022-07-30T03:29:45.954Z,19.90
2022-07-30T03:32:14.007Z,19.90
2022-07-30T03:34:43.728Z,19.90
2022-07-30T03:37:12.372Z,19.90
2022-07-30T03:39:40.682Z,20.00
2022-07-30T03:42:08.852Z,20.00
2022-07-30T03:44:37.260Z,20.00
2022-07-30T03:47:07.338Z,20.00
2022-07-30T03:49:34.589Z,20.00
2022-07-30T03:52:04.353Z,20.00
2022-07-30T03:54:33.938Z,20.00
2022-07-30T03:57:03.846Z,20.00
2022-07-30T03:59:31.942Z,20.00
2022-07-30T04:02:07.239Z,20.00
2022-07-30T04:04:34.840Z,20.00
2022-07-30T04:07:02.261Z,20.00
2022-07-30T04:09:30.047Z,20.00
2022-07-30T04:11:57.194Z,19.90
2022-07-30T04:14:24.295Z,19.90
2022-07-30T04:16:59.483Z,19.80
2022-07-30T04:20:07.457Z,19.80
2022-07-30T04:22:37.841Z,19.70
2022-07-30T04:25:07.103Z,19.60
2022-07-30T04:27:35.863Z,19.60
2022-07-30T04:30:04.496Z,19.50
2022-07-30T04:32:33.396Z,19.50
2022-07-30T04:35:00.543Z,19.40
2022-07-30T04:37:27.876Z,19.40
2022-07-30T04:39:57.730Z,19.40
2022-07-30T04:42:29.105Z,19.30
2022-07-30T04:44:57.898Z,19.30
2022-07-30T04:47:25.624Z,19.30
2022-07-30T04:49:53.915Z,19.30
2022-07-30T04:52:22.513Z,19.30
2022-07-30T04:54:55.933Z,19.30
2022-07-30T04:57:24.674Z,19.20
2022-07-30T04:59:51.987Z,19.30
2022-07-30T05:02:22.530Z,19.30
2022-07-30T05:04:50.428Z,19.20
2022-07-30T05:07:22.568Z,19.20
2022-07-30T05:09:50.336Z,19.20
2022-07-30T05:12:17.449Z,19.30
2022-07-30T05:14:48.234Z,19.20
2022-07-30T05:17:15.524Z,19.30
2022-07-30T05:19:42.614Z,19.20
2022-07-30T05:22:09.829Z,19.20
2022-07-30T05:24:36.886Z,19.20
2022-07-30T05:27:04.247Z,19.20
2022-07-30T05:29:31.462Z,19.30
2022-07-30T05:32:02.675Z,19.20
2022-07-30T05:34:30.670Z,19.20
2022-07-30T05:36:58.205Z,19.20
2022-07-30T05:39:25.592Z,19.20
2022-07-30T05:41:53.581Z,19.20
2022-07-30T05:44:24.031Z,19.20
2022-07-30T05:46:52.255Z,19.20
2022-07-30T05:49:19.559Z,19.20
2022-07-30T05:51:46.849Z,19.20
2022-07-30T05:54:13.942Z,19.20
2022-07-30T05:56:41.345Z,19.10
2022-07-30T05:59:08.504Z,19.10
2022-07-30T06:01:35.659Z,19.10
2022-07-30T06:04:02.865Z,19.10
2022-07-30T06:06:29.963Z,19.00
2022-07-30T06:08:57.022Z,19.00
2022-07-30T06:11:24.103Z,19.00
2022-07-30T06:13:51.625Z,19.00
2022-07-30T06:16:18.760Z,19.00
2022-07-30T06:18:45.844Z,19.00
2022-07-30T06:21:12.936Z,19.00
2022-07-30T06:23:40.091Z,18.90
2022-07-30T06:26:07.319Z,18.90
2022-07-30T06:28:38.741Z,18.90
2022-07-30T06:31:07.558Z,18.90
2022-07-30T06:33:35.311Z,18.80
2022-07-30T06:36:03.016Z,18.80
2022-07-30T06:38:30.352Z,18.80
2022-07-30T06:41:02.514Z,18.80
2022-07-30T06:43:31.459Z,18.70
2022-07-30T06:45:58.721Z,18.70
2022-07-30T06:48:25.799Z,18.70
2022-07-30T06:50:52.987Z,18.70
2022-07-30T06:53:20.113Z,18.70
2022-07-30T06:55:47.243Z,18.70
2022-07-30T06:58:14.327Z,18.70
2022-07-30T07:00:43.064Z,18.70
2022-07-30T07:03:11.918Z,18.70
2022-07-30T07:05:39.635Z,18.70
2022-07-30T07:08:06.848Z,18.60
2022-07-30T07:10:34.218Z,18.60
2022-07-30T07:13:01.365Z,18.60
2022-07-30T07:15:36.771Z,18.60
2022-07-30T07:18:05.835Z,18.60
2022-07-30T07:20:34.323Z,18.60
2022-07-30T07:23:05.398Z,18.60
2022-07-30T07:25:36.690Z,18.60
2022-07-30T07:28:12.325Z,18.60
2022-07-30T07:30:42.106Z,18.60
2022-07-30T07:33:10.705Z,18.70
2022-07-30T07:35:48.481Z,18.60
2022-07-30T07:38:18.684Z,18.70
2022-07-30T07:40:47.428Z,18.70
2022-07-30T07:43:15.388Z,18.70
2022-07-30T07:45:43.653Z,18.70
2022-07-30T07:48:10.843Z,18.70
2022-07-30T07:50:38.800Z,18.70
2022-07-30T07:53:06.465Z,18.70
2022-07-30T07:55:33.715Z,18.80
2022-07-30T07:58:01.535Z,18.80
2022-07-30T08:00:28.997Z,18.80
2022-07-30T08:02:56.472Z,18.80
2022-07-30T08:05:23.864Z,18.70
2022-07-30T08:07:52.207Z,18.80
2022-07-30T08:10:19.453Z,18.80
2022-07-30T08:12:46.555Z,18.80
2022-07-30T08:15:14.928Z,18.80
2022-07-30T08:17:45.055Z,18.80
2022-07-30T08:20:14.628Z,18.80
2022-07-30T08:22:42.204Z,18.80
2022-07-30T08:25:09.829Z,18.80
2022-07-30T08:27:37.009Z,18.90
2022-07-30T08:30:06.620Z,18.90
2022-07-30T08:32:34.342Z,18.90
2022-07-30T08:35:01.715Z,18.90
2022-07-30T08:37:29.200Z,18.90
2022-07-30T08:39:56.290Z,18.90
2022-07-30T08:42:24.161Z,18.90
2022-07-30T08:44:54.800Z,19.00
2022-07-30T08:47:31.146Z,19.00
2022-07-30T08:50:06.315Z,19.00
2022-07-30T08:52:36.981Z,19.00
2022-07-30T08:55:08.204Z,19.00
2022-07-30T08:57:38.433Z,19.00
2022-07-30T09:00:07.549Z,19.00
2022-07-30T09:02:35.501Z,19.00
2022-07-30T09:05:02.889Z,19.00
2022-07-30T09:07:32.034Z,19.10
2022-07-30T09:10:00.731Z,19.10
2022-07-30T09:12:40.753Z,19.10
2022-07-30T09:15:20.851Z,19.10
2022-07-30T09:18:00.735Z,19.00
2022-07-30T09:20:34.619Z,19.00
2022-07-30T09:23:05.289Z,19.00
2022-07-30T09:25:46.036Z,19.00
2022-07-30T09:28:17.099Z,19.10
2022-07-30T09:30:53.973Z,19.10
2022-07-30T09:33:40.544Z,19.10
2022-07-30T09:36:16.535Z,19.10
2022-07-30T09:38:54.245Z,19.10
2022-07-30T09:41:39.278Z,19.10
2022-07-30T09:44:07.394Z,19.10
2022-07-30T09:46:47.701Z,19.10
2022-07-30T09:49:26.883Z,19.10
2022-07-30T09:51:57.482Z,19.10
2022-07-30T09:54:51.432Z,19.10
2022-07-30T09:57:25.850Z,19.10
2022-07-30T09:59:57.528Z,19.10
2022-07-30T10:02:33.214Z,19.10
2022-07-30T10:05:16.489Z,19.10
2022-07-30T10:08:04.486Z,19.20
2022-07-30T10:10:36.711Z,19.30
2022-07-30T10:13:17.954Z,19.30
2022-07-30T10:15:50.315Z,19.40
2022-07-30T10:18:18.227Z,19.50
2022-07-30T10:20:45.693Z,19.60
2022-07-30T10:23:15.612Z,19.70
2022-07-30T10:25:48.895Z,19.70
2022-07-30T10:28:26.247Z,19.60
2022-07-30T10:30:56.071Z,19.70
2022-07-30T10:33:37.495Z,19.70
2022-07-30T10:36:10.694Z,19.70
2022-07-30T10:38:41.650Z,19.70
2022-07-30T10:41:22.295Z,19.80
2022-07-30T10:44:44.343Z,19.90
2022-07-30T10:47:16.445Z,19.90
2022-07-30T10:50:26.851Z,20.10
2022-07-30T10:52:56.797Z,20.20
2022-07-30T10:55:37.628Z,20.30
2022-07-30T10:58:15.721Z,20.50
2022-07-30T11:00:58.872Z,20.50
2022-07-30T11:03:41.491Z,20.60
2022-07-30T11:06:24.249Z,20.60
2022-07-30T11:08:52.281Z,20.60
2022-07-30T11:11:37.027Z,20.60
2022-07-30T11:14:12.924Z,20.70
2022-07-30T11:16:40.211Z,20.70
2022-07-30T11:19:56.067Z,20.70
2022-07-30T11:22:36.734Z,20.70
2022-07-30T11:25:12.635Z,20.80
2022-07-30T11:27:50.342Z,20.90
2022-07-30T11:30:17.897Z,21.00
2022-07-30T11:32:54.101Z,21.10
2022-07-30T11:35:25.449Z,21.10
2022-07-30T11:38:00.893Z,21.20
2022-07-30T11:43:34.766Z,21.70
2022-07-30T11:46:15.687Z,21.80
2022-07-30T11:48:59.353Z,21.90
2022-07-30T11:51:27.070Z,22.10
2022-07-30T11:54:04.878Z,22.30
2022-07-30T11:56:32.932Z,22.30
2022-07-30T11:59:05.980Z,22.30
2022-07-30T12:01:35.294Z,22.40
2022-07-30T12:04:06.894Z,22.20
2022-07-30T12:06:36.483Z,22.20
2022-07-30T12:09:03.956Z,22.20
2022-07-30T12:11:35.542Z,22.20
2022-07-30T12:14:04.741Z,22.20
2022-07-30T12:16:33.264Z,22.10
2022-07-30T12:19:06.000Z,22.00
2022-07-30T12:21:33.915Z,21.90
2022-07-30T12:24:07.671Z,21.90
2022-07-30T12:26:35.428Z,21.80
2022-07-30T12:29:07.361Z,21.80
2022-07-30T12:31:38.450Z,21.80
2022-07-30T12:34:24.892Z,21.80
2022-07-30T12:36:52.429Z,21.80
2022-07-30T12:39:26.949Z,21.80
2022-07-30T12:41:56.281Z,21.90
2022-07-30T12:44:42.014Z,21.90
2022-07-30T12:47:29.000Z,21.90
2022-07-30T12:50:01.631Z,21.90
2022-07-30T12:52:34.543Z,21.90
2022-07-30T12:55:09.378Z,21.90
2022-07-30T12:57:59.914Z,22.00
2022-07-30T13:00:44.938Z,22.10
2022-07-30T13:03:21.139Z,22.10
2022-07-30T13:05:51.383Z,22.20
2022-07-30T13:08:46.080Z,22.20
2022-07-30T13:11:13.796Z,22.40
2022-07-30T13:13:40.980Z,22.50
2022-07-30T13:16:08.463Z,22.60
2022-07-30T13:18:37.244Z,22.70
2022-07-30T13:21:08.211Z,22.70
2022-07-30T13:23:40.180Z,22.70
2022-07-30T13:26:09.155Z,22.80
2022-07-30T13:28:37.544Z,22.80
2022-07-30T13:31:04.742Z,22.80
2022-07-30T13:33:31.954Z,22.80
2022-07-30T13:35:59.302Z,22.70
2022-07-30T13:38:27.859Z,22.70
2022-07-30T13:40:59.172Z,22.60
2022-07-30T13:43:29.823Z,22.50
2022-07-30T13:46:04.164Z,22.40
2022-07-30T13:48:33.226Z,22.40
2022-07-30T13:51:01.619Z,22.40
2022-07-30T13:53:29.619Z,22.30
2022-07-30T13:55:56.983Z,22.40
2022-07-30T13:58:24.124Z,22.30
2022-07-30T14:00:51.639Z,22.40
2022-07-30T14:03:18.782Z,22.40
2022-07-30T14:05:45.876Z,22.30
2022-07-30T14:08:13.098Z,22.30
2022-07-30T14:10:40.879Z,22.30
2022-07-30T14:13:10.364Z,22.30
2022-07-30T14:15:41.572Z,22.30
2022-07-30T14:18:08.630Z,22.20
2022-07-30T14:20:35.761Z,22.20
2022-07-30T14:23:02.988Z,22.20
2022-07-30T14:25:31.037Z,22.20
2022-07-30T14:27:58.212Z,22.20
2022-07-30T14:30:26.195Z,22.40
2022-07-30T14:32:59.280Z,22.60
2022-07-30T14:35:27.654Z,23.00
2022-07-30T14:37:54.812Z,23.60
2022-07-30T14:40:22.095Z,24.10
2022-07-30T14:42:49.260Z,24.60
2022-07-30T14:45:16.354Z,24.90
2022-07-30T14:47:43.609Z,25.10
2022-07-30T14:50:10.799Z,25.30
2022-07-30T14:52:38.881Z,25.40
2022-07-30T14:55:09.847Z,25.50
2022-07-30T14:57:37.180Z,25.50
2022-07-30T15:00:08.519Z,25.80
2022-07-30T15:02:38.279Z,25.80
2022-07-30T15:05:06.164Z,25.90
2022-07-30T15:07:34.631Z,25.80
2022-07-30T15:10:03.223Z,25.70
2022-07-30T15:12:30.589Z,25.80
2022-07-30T15:14:57.773Z,25.70
2022-07-30T15:17:24.870Z,25.70
2022-07-30T15:19:52.120Z,25.70
2022-07-30T15:22:20.299Z,25.60
2022-07-30T15:24:48.229Z,25.50
2022-07-30T15:27:15.390Z,25.40
2022-07-30T15:29:42.892Z,25.40
2022-07-30T15:32:09.987Z,25.30
2022-07-30T15:34:37.138Z,25.10
2022-07-30T15:37:06.304Z,24.90
2022-07-30T15:39:34.239Z,24.80
2022-07-30T15:42:03.113Z,24.60
2022-07-30T15:44:30.618Z,24.50
2022-07-30T15:46:58.579Z,24.30
2022-07-30T15:49:26.061Z,24.20
2022-07-30T15:51:53.204Z,24.10
2022-07-30T15:54:25.258Z,24.10
2022-07-30T15:56:54.599Z,24.00
2022-07-30T15:59:29.141Z,23.90
2022-07-30T16:01:56.352Z,23.80
2022-07-30T16:04:31.568Z,23.80
2022-07-30T16:07:04.427Z,23.70
2022-07-30T16:09:31.849Z,23.70
2022-07-30T16:11:59.327Z,23.90
2022-07-30T16:14:27.279Z,24.00
2022-07-30T16:16:54.738Z,24.10
2022-07-30T16:19:21.947Z,24.10
2022-07-30T16:21:54.150Z,24.10
2022-07-30T16:24:21.791Z,24.00
2022-07-30T16:26:49.063Z,23.90
2022-07-30T16:29:16.385Z,23.90
2022-07-30T16:31:43.920Z,23.80
2022-07-30T16:34:11.074Z,23.70
2022-07-30T16:36:38.365Z,23.60
2022-07-30T16:39:06.409Z,23.50
2022-07-30T16:41:33.725Z,23.40
2022-07-30T16:44:00.877Z,23.10
2022-07-30T16:46:28.208Z,22.70
2022-07-30T16:48:55.484Z,22.40
2022-07-30T16:51:22.597Z,22.00
2022-07-30T16:53:49.808Z,21.70
2022-07-30T16:56:17.722Z,21.40
2022-07-30T16:58:44.857Z,21.20
2022-07-30T17:01:12.104Z,21.00
2022-07-30T17:03:39.387Z,20.80
2022-07-30T17:06:06.693Z,20.70
2022-07-30T17:08:33.863Z,20.60
2022-07-30T17:11:01.546Z,20.50
2022-07-30T17:13:28.771Z,20.50
2022-07-30T17:15:56.063Z,20.40
2022-07-30T17:18:23.205Z,20.40
2022-07-30T17:20:50.366Z,20.50
2022-07-30T17:23:17.482Z,20.50
2022-07-30T17:25:44.939Z,20.50
2022-07-30T17:28:12.050Z,20.50
2022-07-30T17:30:39.244Z,20.40
2022-07-30T17:33:06.514Z,20.50
2022-07-30T17:35:34.260Z,20.40
2022-07-30T17:38:01.604Z,20.40
2022-07-30T17:40:31.575Z,20.30
2022-07-30T17:43:04.653Z,20.20
2022-07-30T17:45:36.833Z,20.10
2022-07-30T17:48:05.403Z,20.10
2022-07-30T17:50:34.447Z,20.10
2022-07-30T17:53:04.089Z,20.10
2022-07-30T17:55:35.090Z,20.10
2022-07-30T17:58:05.821Z,20.10
2022-07-30T18:00:35.352Z,20.10
2022-07-30T18:03:03.663Z,20.00
2022-07-30T18:05:30.819Z,20.00
2022-07-30T18:07:57.972Z,20.00
2022-07-30T18:10:25.128Z,20.00
2022-07-30T18:12:52.315Z,20.00
2022-07-30T18:15:19.511Z,19.90
2022-07-30T18:17:46.968Z,19.90
2022-07-30T18:20:15.197Z,19.90
2022-07-30T18:22:42.819Z,19.90
2022-07-30T18:25:18.584Z,19.90
2022-07-30T18:27:47.578Z,19.90
2022-07-30T18:30:15.062Z,19.90
2022-07-30T18:32:42.786Z,19.90
2022-07-30T18:35:14.067Z,19.90
2022-07-30T18:37:42.799Z,19.90
2022-07-30T18:40:12.890Z,19.90
2022-07-30T18:42:40.455Z,19.90
2022-07-30T18:45:08.952Z,19.90
2022-07-30T18:47:35.997Z,19.90
2022-07-30T18:50:03.310Z,19.90
2022-07-30T18:52:31.072Z,19.90
2022-07-30T18:54:59.911Z,20.00
2022-07-30T18:57:27.255Z,19.90
2022-07-30T18:59:54.395Z,20.00
2022-07-30T19:02:25.437Z,20.00
2022-07-30T19:04:53.605Z,20.00
2022-07-30T19:07:21.488Z,20.10
2022-07-30T19:09:48.657Z,20.10
2022-07-30T19:12:15.996Z,20.10
2022-07-30T19:14:44.583Z,20.10
2022-07-30T19:17:14.085Z,20.10
2022-07-30T19:19:42.599Z,20.10
2022-07-30T19:22:09.848Z,20.10
2022-07-30T19:24:37.302Z,20.10
2022-07-30T19:27:05.515Z,20.10
2022-07-30T19:29:32.869Z,20.10
2022-07-30T19:32:00.201Z,20.00
2022-07-30T19:34:27.552Z,20.00
2022-07-30T19:36:54.672Z,20.00
2022-07-30T19:39:22.170Z,20.00
2022-07-30T19:41:50.796Z,20.00
2022-07-30T19:44:18.998Z,20.00
2022-07-30T19:46:48.767Z,20.00
2022-07-30T19:49:19.825Z,20.00
2022-07-30T19:54:36.705Z,20.00
2022-07-30T19:57:04.829Z,20.00
2022-07-30T19:59:55.819Z,20.10
2022-07-30T20:02:19.396Z,20.00
2022-07-30T20:04:49.806Z,20.00
2022-07-30T20:07:17.369Z,20.00
2022-07-30T20:09:45.023Z,20.00
2022-07-30T20:12:15.718Z,20.00
2022-07-30T20:14:44.290Z,20.10
2022-07-30T20:17:11.875Z,20.10
2022-07-30T20:19:39.339Z,20.10
2022-07-30T20:22:16.036Z,20.10
2022-07-30T20:24:44.923Z,20.10
2022-07-30T20:27:36.220Z,20.10
2022-07-30T20:29:59.448Z,20.10
2022-07-30T20:32:26.739Z,20.10
2022-07-30T20:34:54.104Z,20.10
2022-07-30T20:37:22.555Z,20.10
2022-07-30T20:39:50.452Z,20.20
2022-07-30T20:42:18.582Z,20.20
2022-07-30T20:44:49.415Z,20.20
2022-07-30T20:47:34.451Z,20.10
2022-07-30T20:50:09.512Z,20.20
2022-07-30T20:52:40.945Z,20.10
2022-07-30T20:55:19.188Z,20.10
2022-07-30T20:58:00.292Z,20.10
2022-07-30T21:00:37.137Z,20.10
2022-07-30T21:03:05.601Z,20.20
2022-07-30T21:05:32.821Z,20.10
2022-07-30T21:08:00.708Z,20.10
2022-07-30T21:10:27.973Z,20.10
2022-07-30T21:12:58.797Z,20.20
2022-07-30T21:15:32.904Z,20.20
2022-07-30T21:18:01.681Z,20.10
2022-07-30T21:20:30.838Z,20.10
2022-07-30T21:23:11.447Z,20.10
2022-07-30T21:26:00.631Z,20.10
2022-07-30T21:28:29.297Z,20.10
2022-07-30T21:30:57.112Z,20.10
2022-07-30T21:36:12.003Z,20.20
2022-07-30T21:38:42.476Z,20.10
2022-07-30T21:41:14.416Z,20.10
2022-07-30T21:43:43.986Z,20.10
2022-07-30T21:46:12.126Z,20.10
2022-07-30T21:48:39.981Z,20.10
2022-07-30T21:51:08.650Z,20.10
2022-07-30T21:56:24.183Z,20.00
2022-07-30T21:58:52.284Z,20.00
2022-07-30T22:01:22.614Z,19.90
2022-07-30T22:04:04.729Z,19.90
2022-07-30T22:06:40.213Z,19.90
2022-07-30T22:09:26.315Z,19.80
2022-07-30T22:12:02.375Z,19.80
2022-07-30T22:14:34.049Z,19.70
2022-07-30T22:17:04.441Z,19.70
2022-07-30T22:19:31.996Z,19.70
2022-07-30T22:24:46.259Z,19.70
2022-07-30T22:30:01.203Z,19.70
2022-07-30T22:32:28.328Z,19.60
2022-07-30T22:34:55.485Z,19.60
2022-07-30T22:37:31.383Z,19.60
2022-07-30T22:40:01.701Z,19.60
2022-07-30T22:42:28.946Z,19.60
2022-07-30T22:44:57.523Z,19.50
2022-07-30T22:47:50.850Z,19.50
2022-07-30T22:50:12.879Z,19.40
2022-07-30T22:52:44.145Z,19.30
2022-07-30T22:55:26.528Z,19.30
2022-07-30T22:57:54.426Z,19.30
2022-07-30T23:00:27.434Z,19.30
2022-07-30T23:02:56.841Z,19.20
2022-07-30T23:05:24.466Z,19.20
2022-07-30T23:07:51.920Z,19.10
2022-07-30T23:10:20.681Z,19.10
2022-07-30T23:12:17.000Z,20.00
2022-07-30T23:12:27.746Z,20.10
2022-07-30T23:12:31.607Z,19.70
2022-07-30T23:12:32.129Z,19.70
2022-07-30T23:12:32.307Z,20.20
2022-07-30T23:12:51.558Z,19.10
2022-07-30T23:15:19.977Z,19.10
2022-07-30T23:17:47.831Z,19.10
2022-07-30T23:20:18.439Z,19.10
2022-07-30T23:22:45.558Z,19.10
2022-07-30T23:25:13.693Z,19.10
2022-07-30T23:27:41.611Z,19.00
2022-07-30T23:30:11.475Z,19.00
2022-07-30T23:32:40.170Z,19.00
2022-07-30T23:35:09.017Z,19.00
2022-07-30T23:37:48.553Z,19.00
2022-07-30T23:40:18.569Z,19.00
2022-07-30T23:42:47.417Z,19.00
2022-07-30T23:45:14.813Z,19.00
2022-07-30T23:47:54.624Z,19.00
2022-07-30T23:50:31.122Z,19.00
2022-07-30T23:52:58.341Z,19.00
2022-07-30T23:55:27.131Z,19.00
2022-07-30T23:57:54.448Z,18.90
